<?xml version="1.0" encoding="UTF-8" standalone="no" ?>
<gpx xmlns="http://www.topografix.com/GPX/1/1" xmlns:xsi="http://www.w3.org/2001/XMLSchema-instance" xsi:schemaLocation="http://www.topografix.com/GPX/1/1 http://www.topografix.com/GPX/1/1/gpx.xsd" version="1.1" creator="VisuGPX - https://www.visugpx.com">
  <metadata>
    <name>12629081-Reco Grande ST Maurice</name>
  </metadata>
  <trk>
    <name><![CDATA[12629081-Reco Grande ST Maurice]]></name>
    <trkseg>
      <trkpt lat="45.58346" lon="4.63035">
        <ele>472</ele>
        <time>2021-03-03T17:08:20Z</time>
      </trkpt>
      <trkpt lat="45.58329" lon="4.63056">
        <ele>473</ele>
        <time>2021-03-03T17:08:50Z</time>
      </trkpt>
      <trkpt lat="45.58324" lon="4.631">
        <ele>472</ele>
        <time>2021-03-03T17:09:32Z</time>
      </trkpt>
      <trkpt lat="45.58339" lon="4.63136">
        <ele>471</ele>
        <time>2021-03-03T17:10:11Z</time>
      </trkpt>
      <trkpt lat="45.58332" lon="4.63203">
        <ele>469</ele>
        <time>2021-03-03T17:11:14Z</time>
      </trkpt>
      <trkpt lat="45.58338" lon="4.63232">
        <ele>468</ele>
        <time>2021-03-03T17:11:42Z</time>
      </trkpt>
      <trkpt lat="45.58419" lon="4.63306">
        <ele>464</ele>
        <time>2021-03-03T17:13:51Z</time>
      </trkpt>
      <trkpt lat="45.58412" lon="4.63367">
        <ele>463</ele>
        <time>2021-03-03T17:14:48Z</time>
      </trkpt>
      <trkpt lat="45.58445" lon="4.63479">
        <ele>455</ele>
        <time>2021-03-03T17:16:42Z</time>
      </trkpt>
      <trkpt lat="45.58439" lon="4.63573">
        <ele>446</ele>
        <time>2021-03-03T17:18:10Z</time>
      </trkpt>
      <trkpt lat="45.58424" lon="4.63626">
        <ele>440</ele>
        <time>2021-03-03T17:19:03Z</time>
      </trkpt>
      <trkpt lat="45.58386" lon="4.63704">
        <ele>429</ele>
        <time>2021-03-03T17:20:32Z</time>
      </trkpt>
      <trkpt lat="45.5838" lon="4.63811">
        <ele>420</ele>
        <time>2021-03-03T17:22:12Z</time>
      </trkpt>
      <trkpt lat="45.58312" lon="4.6389">
        <ele>412</ele>
        <time>2021-03-03T17:24:09Z</time>
      </trkpt>
      <trkpt lat="45.58155" lon="4.63864">
        <ele>411</ele>
        <time>2021-03-03T17:27:40Z</time>
      </trkpt>
      <trkpt lat="45.57991" lon="4.63813">
        <ele>415</ele>
        <time>2021-03-03T17:31:24Z</time>
      </trkpt>
      <trkpt lat="45.57967" lon="4.64032">
        <ele>401</ele>
        <time>2021-03-03T17:34:51Z</time>
      </trkpt>
      <trkpt lat="45.57739" lon="4.6406">
        <ele>403</ele>
        <time>2021-03-03T17:39:57Z</time>
      </trkpt>
      <trkpt lat="45.57674" lon="4.64073">
        <ele>401</ele>
        <time>2021-03-03T17:41:24Z</time>
      </trkpt>
      <trkpt lat="45.57551" lon="4.64064">
        <ele>400</ele>
        <time>2021-03-03T17:44:09Z</time>
      </trkpt>
      <trkpt lat="45.57393" lon="4.64118">
        <ele>395</ele>
        <time>2021-03-03T17:47:45Z</time>
      </trkpt>
      <trkpt lat="45.57222" lon="4.64182">
        <ele>389</ele>
        <time>2021-03-03T17:51:41Z</time>
      </trkpt>
      <trkpt lat="45.57163" lon="4.64238">
        <ele>386</ele>
        <time>2021-03-03T17:53:16Z</time>
      </trkpt>
      <trkpt lat="45.57129" lon="4.64112">
        <ele>385</ele>
        <time>2021-03-03T17:55:22Z</time>
      </trkpt>
      <trkpt lat="45.57067" lon="4.64015">
        <ele>381</ele>
        <time>2021-03-03T17:57:25Z</time>
      </trkpt>
      <trkpt lat="45.5697" lon="4.63841">
        <ele>374</ele>
        <time>2021-03-03T18:00:52Z</time>
      </trkpt>
      <trkpt lat="45.56883" lon="4.63585">
        <ele>374</ele>
        <time>2021-03-03T18:05:18Z</time>
      </trkpt>
      <trkpt lat="45.56821" lon="4.63481">
        <ele>376</ele>
        <time>2021-03-03T18:07:26Z</time>
      </trkpt>
      <trkpt lat="45.56798" lon="4.63395">
        <ele>376</ele>
        <time>2021-03-03T18:08:52Z</time>
      </trkpt>
      <trkpt lat="45.56683" lon="4.63013">
        <ele>362</ele>
        <time>2021-03-03T18:15:20Z</time>
      </trkpt>
      <trkpt lat="45.56566" lon="4.62871">
        <ele>334</ele>
        <time>2021-03-03T18:18:45Z</time>
      </trkpt>
      <trkpt lat="45.56512" lon="4.6289">
        <ele>329</ele>
        <time>2021-03-03T18:19:59Z</time>
      </trkpt>
      <trkpt lat="45.56411" lon="4.6297">
        <ele>331</ele>
        <time>2021-03-03T18:22:34Z</time>
      </trkpt>
      <trkpt lat="45.56301" lon="4.63081">
        <ele>340</ele>
        <time>2021-03-03T18:25:33Z</time>
      </trkpt>
      <trkpt lat="45.56307" lon="4.6321">
        <ele>348</ele>
        <time>2021-03-03T18:27:34Z</time>
      </trkpt>
      <trkpt lat="45.56285" lon="4.63336">
        <ele>353</ele>
        <time>2021-03-03T18:29:35Z</time>
      </trkpt>
      <trkpt lat="45.56253" lon="4.6342">
        <ele>353</ele>
        <time>2021-03-03T18:31:05Z</time>
      </trkpt>
      <trkpt lat="45.56181" lon="4.63603">
        <ele>355</ele>
        <time>2021-03-03T18:34:21Z</time>
      </trkpt>
      <trkpt lat="45.56082" lon="4.63736">
        <ele>358</ele>
        <time>2021-03-03T18:37:22Z</time>
      </trkpt>
      <trkpt lat="45.56062" lon="4.63678">
        <ele>354</ele>
        <time>2021-03-03T18:38:23Z</time>
      </trkpt>
      <trkpt lat="45.55814" lon="4.63749">
        <ele>343</ele>
        <time>2021-03-03T18:44:00Z</time>
      </trkpt>
      <trkpt lat="45.55814" lon="4.63553">
        <ele>331</ele>
        <time>2021-03-03T18:47:03Z</time>
      </trkpt>
      <trkpt lat="45.55811" lon="4.63523">
        <ele>329</ele>
        <time>2021-03-03T18:47:32Z</time>
      </trkpt>
      <trkpt lat="45.55845" lon="4.63467">
        <ele>324</ele>
        <time>2021-03-03T18:48:41Z</time>
      </trkpt>
      <trkpt lat="45.55793" lon="4.63386">
        <ele>306</ele>
        <time>2021-03-03T18:50:24Z</time>
      </trkpt>
      <trkpt lat="45.55825" lon="4.63349">
        <ele>306</ele>
        <time>2021-03-03T18:51:19Z</time>
      </trkpt>
      <trkpt lat="45.55804" lon="4.63279">
        <ele>296</ele>
        <time>2021-03-03T18:52:30Z</time>
      </trkpt>
      <trkpt lat="45.55822" lon="4.63184">
        <ele>295</ele>
        <time>2021-03-03T18:54:02Z</time>
      </trkpt>
      <trkpt lat="45.55831" lon="4.63122">
        <ele>302</ele>
        <time>2021-03-03T18:55:01Z</time>
      </trkpt>
      <trkpt lat="45.55912" lon="4.63068">
        <ele>302</ele>
        <time>2021-03-03T18:57:00Z</time>
      </trkpt>
      <trkpt lat="45.55945" lon="4.63006">
        <ele>311</ele>
        <time>2021-03-03T18:58:13Z</time>
      </trkpt>
      <trkpt lat="45.55998" lon="4.62983">
        <ele>307</ele>
        <time>2021-03-03T18:59:27Z</time>
      </trkpt>
      <trkpt lat="45.55918" lon="4.62989">
        <ele>317</ele>
        <time>2021-03-03T19:01:14Z</time>
      </trkpt>
      <trkpt lat="45.55845" lon="4.62847">
        <ele>336</ele>
        <time>2021-03-03T19:03:58Z</time>
      </trkpt>
      <trkpt lat="45.55774" lon="4.62886">
        <ele>336</ele>
        <time>2021-03-03T19:05:40Z</time>
      </trkpt>
      <trkpt lat="45.55768" lon="4.62719">
        <ele>345</ele>
        <time>2021-03-03T19:08:16Z</time>
      </trkpt>
      <trkpt lat="45.55723" lon="4.6271">
        <ele>346</ele>
        <time>2021-03-03T19:09:17Z</time>
      </trkpt>
      <trkpt lat="45.55687" lon="4.62375">
        <ele>358</ele>
        <time>2021-03-03T19:14:33Z</time>
      </trkpt>
      <trkpt lat="45.55834" lon="4.62322">
        <ele>356</ele>
        <time>2021-03-03T19:17:56Z</time>
      </trkpt>
      <trkpt lat="45.55912" lon="4.62229">
        <ele>356</ele>
        <time>2021-03-03T19:20:11Z</time>
      </trkpt>
      <trkpt lat="45.56025" lon="4.62129">
        <ele>363</ele>
        <time>2021-03-03T19:23:09Z</time>
      </trkpt>
      <trkpt lat="45.56065" lon="4.62118">
        <ele>366</ele>
        <time>2021-03-03T19:24:03Z</time>
      </trkpt>
      <trkpt lat="45.56083" lon="4.6221">
        <ele>364</ele>
        <time>2021-03-03T19:25:32Z</time>
      </trkpt>
      <trkpt lat="45.56184" lon="4.62268">
        <ele>362</ele>
        <time>2021-03-03T19:27:58Z</time>
      </trkpt>
      <trkpt lat="45.56271" lon="4.62277">
        <ele>360</ele>
        <time>2021-03-03T19:29:54Z</time>
      </trkpt>
      <trkpt lat="45.56501" lon="4.62289">
        <ele>352</ele>
        <time>2021-03-03T19:35:01Z</time>
      </trkpt>
      <trkpt lat="45.56489" lon="4.62566">
        <ele>333</ele>
        <time>2021-03-03T19:39:20Z</time>
      </trkpt>
      <trkpt lat="45.56512" lon="4.62593">
        <ele>330</ele>
        <time>2021-03-03T19:40:00Z</time>
      </trkpt>
      <trkpt lat="45.56591" lon="4.62573">
        <ele>329</ele>
        <time>2021-03-03T19:41:47Z</time>
      </trkpt>
      <trkpt lat="45.56677" lon="4.62607">
        <ele>320</ele>
        <time>2021-03-03T19:43:46Z</time>
      </trkpt>
      <trkpt lat="45.56758" lon="4.6253">
        <ele>322</ele>
        <time>2021-03-03T19:45:56Z</time>
      </trkpt>
      <trkpt lat="45.56743" lon="4.6262">
        <ele>316</ele>
        <time>2021-03-03T19:47:22Z</time>
      </trkpt>
      <trkpt lat="45.56746" lon="4.62669">
        <ele>315</ele>
        <time>2021-03-03T19:48:08Z</time>
      </trkpt>
      <trkpt lat="45.568" lon="4.62734">
        <ele>337</ele>
        <time>2021-03-03T19:49:43Z</time>
      </trkpt>
      <trkpt lat="45.56816" lon="4.62693">
        <ele>335</ele>
        <time>2021-03-03T19:50:27Z</time>
      </trkpt>
      <trkpt lat="45.56832" lon="4.62697">
        <ele>340</ele>
        <time>2021-03-03T19:50:48Z</time>
      </trkpt>
      <trkpt lat="45.56832" lon="4.62721">
        <ele>343</ele>
        <time>2021-03-03T19:51:11Z</time>
      </trkpt>
      <trkpt lat="45.56852" lon="4.62699">
        <ele>344</ele>
        <time>2021-03-03T19:51:44Z</time>
      </trkpt>
      <trkpt lat="45.56939" lon="4.62702">
        <ele>358</ele>
        <time>2021-03-03T19:53:40Z</time>
      </trkpt>
      <trkpt lat="45.57057" lon="4.6291">
        <ele>378</ele>
        <time>2021-03-03T19:57:51Z</time>
      </trkpt>
      <trkpt lat="45.57051" lon="4.62939">
        <ele>378</ele>
        <time>2021-03-03T19:58:19Z</time>
      </trkpt>
      <trkpt lat="45.57263" lon="4.63092">
        <ele>394</ele>
        <time>2021-03-03T20:03:36Z</time>
      </trkpt>
      <trkpt lat="45.57379" lon="4.62933">
        <ele>397</ele>
        <time>2021-03-03T20:07:10Z</time>
      </trkpt>
      <trkpt lat="45.57421" lon="4.62887">
        <ele>398</ele>
        <time>2021-03-03T20:08:21Z</time>
      </trkpt>
      <trkpt lat="45.57426" lon="4.62805">
        <ele>399</ele>
        <time>2021-03-03T20:09:38Z</time>
      </trkpt>
      <trkpt lat="45.57568" lon="4.626">
        <ele>420</ele>
        <time>2021-03-03T20:14:07Z</time>
      </trkpt>
      <trkpt lat="45.57453" lon="4.62534">
        <ele>410</ele>
        <time>2021-03-03T20:16:53Z</time>
      </trkpt>
      <trkpt lat="45.57408" lon="4.62478">
        <ele>408</ele>
        <time>2021-03-03T20:18:12Z</time>
      </trkpt>
      <trkpt lat="45.572" lon="4.62478">
        <ele>383</ele>
        <time>2021-03-03T20:22:50Z</time>
      </trkpt>
      <trkpt lat="45.57124" lon="4.6248">
        <ele>365</ele>
        <time>2021-03-03T20:24:31Z</time>
      </trkpt>
      <trkpt lat="45.57091" lon="4.62518">
        <ele>357</ele>
        <time>2021-03-03T20:25:28Z</time>
      </trkpt>
      <trkpt lat="45.57128" lon="4.62573">
        <ele>364</ele>
        <time>2021-03-03T20:26:39Z</time>
      </trkpt>
      <trkpt lat="45.57129" lon="4.62598">
        <ele>364</ele>
        <time>2021-03-03T20:27:02Z</time>
      </trkpt>
      <trkpt lat="45.57222" lon="4.62695">
        <ele>376</ele>
        <time>2021-03-03T20:29:36Z</time>
      </trkpt>
      <trkpt lat="45.57114" lon="4.62608">
        <ele>361</ele>
        <time>2021-03-03T20:32:22Z</time>
      </trkpt>
      <trkpt lat="45.57043" lon="4.62579">
        <ele>348</ele>
        <time>2021-03-03T20:34:00Z</time>
      </trkpt>
      <trkpt lat="45.5701" lon="4.6255">
        <ele>340</ele>
        <time>2021-03-03T20:34:52Z</time>
      </trkpt>
      <trkpt lat="45.56969" lon="4.62551">
        <ele>334</ele>
        <time>2021-03-03T20:35:47Z</time>
      </trkpt>
      <trkpt lat="45.56967" lon="4.62527">
        <ele>330</ele>
        <time>2021-03-03T20:36:09Z</time>
      </trkpt>
      <trkpt lat="45.56982" lon="4.62509">
        <ele>330</ele>
        <time>2021-03-03T20:36:35Z</time>
      </trkpt>
      <trkpt lat="45.56977" lon="4.62483">
        <ele>327</ele>
        <time>2021-03-03T20:37:00Z</time>
      </trkpt>
      <trkpt lat="45.56991" lon="4.6244">
        <ele>326</ele>
        <time>2021-03-03T20:37:45Z</time>
      </trkpt>
      <trkpt lat="45.57034" lon="4.62409">
        <ele>333</ele>
        <time>2021-03-03T20:38:49Z</time>
      </trkpt>
      <trkpt lat="45.57026" lon="4.62364">
        <ele>330</ele>
        <time>2021-03-03T20:39:32Z</time>
      </trkpt>
      <trkpt lat="45.57042" lon="4.62308">
        <ele>332</ele>
        <time>2021-03-03T20:40:29Z</time>
      </trkpt>
      <trkpt lat="45.57078" lon="4.62242">
        <ele>333</ele>
        <time>2021-03-03T20:41:47Z</time>
      </trkpt>
      <trkpt lat="45.57027" lon="4.62297">
        <ele>333</ele>
        <time>2021-03-03T20:43:12Z</time>
      </trkpt>
      <trkpt lat="45.57036" lon="4.62241">
        <ele>338</ele>
        <time>2021-03-03T20:44:06Z</time>
      </trkpt>
      <trkpt lat="45.57014" lon="4.62235">
        <ele>341</ele>
        <time>2021-03-03T20:44:36Z</time>
      </trkpt>
      <trkpt lat="45.56969" lon="4.62238">
        <ele>343</ele>
        <time>2021-03-03T20:45:36Z</time>
      </trkpt>
      <trkpt lat="45.56945" lon="4.62211">
        <ele>346</ele>
        <time>2021-03-03T20:46:17Z</time>
      </trkpt>
      <trkpt lat="45.56939" lon="4.62145">
        <ele>352</ele>
        <time>2021-03-03T20:47:19Z</time>
      </trkpt>
      <trkpt lat="45.56936" lon="4.62037">
        <ele>360</ele>
        <time>2021-03-03T20:49:00Z</time>
      </trkpt>
      <trkpt lat="45.56972" lon="4.61819">
        <ele>371</ele>
        <time>2021-03-03T20:52:29Z</time>
      </trkpt>
      <trkpt lat="45.5697" lon="4.61779">
        <ele>373</ele>
        <time>2021-03-03T20:53:07Z</time>
      </trkpt>
      <trkpt lat="45.57061" lon="4.61625">
        <ele>382</ele>
        <time>2021-03-03T20:56:15Z</time>
      </trkpt>
      <trkpt lat="45.57122" lon="4.61662">
        <ele>381</ele>
        <time>2021-03-03T20:57:43Z</time>
      </trkpt>
      <trkpt lat="45.57206" lon="4.61652">
        <ele>380</ele>
        <time>2021-03-03T20:59:36Z</time>
      </trkpt>
      <trkpt lat="45.57269" lon="4.61616">
        <ele>379</ele>
        <time>2021-03-03T21:01:06Z</time>
      </trkpt>
      <trkpt lat="45.57296" lon="4.61604">
        <ele>377</ele>
        <time>2021-03-03T21:01:44Z</time>
      </trkpt>
      <trkpt lat="45.57327" lon="4.61612">
        <ele>373</ele>
        <time>2021-03-03T21:02:26Z</time>
      </trkpt>
      <trkpt lat="45.57376" lon="4.61524">
        <ele>372</ele>
        <time>2021-03-03T21:04:11Z</time>
      </trkpt>
      <trkpt lat="45.57458" lon="4.61497">
        <ele>361</ele>
        <time>2021-03-03T21:06:03Z</time>
      </trkpt>
      <trkpt lat="45.57482" lon="4.61444">
        <ele>357</ele>
        <time>2021-03-03T21:07:02Z</time>
      </trkpt>
      <trkpt lat="45.57509" lon="4.61414">
        <ele>353</ele>
        <time>2021-03-03T21:07:48Z</time>
      </trkpt>
      <trkpt lat="45.57506" lon="4.61501">
        <ele>353</ele>
        <time>2021-03-03T21:09:09Z</time>
      </trkpt>
      <trkpt lat="45.57547" lon="4.61451">
        <ele>354</ele>
        <time>2021-03-03T21:10:21Z</time>
      </trkpt>
      <trkpt lat="45.57622" lon="4.61394">
        <ele>363</ele>
        <time>2021-03-03T21:12:15Z</time>
      </trkpt>
      <trkpt lat="45.57513" lon="4.61484">
        <ele>354</ele>
        <time>2021-03-03T21:15:03Z</time>
      </trkpt>
      <trkpt lat="45.57522" lon="4.61414">
        <ele>353</ele>
        <time>2021-03-03T21:16:09Z</time>
      </trkpt>
      <trkpt lat="45.57544" lon="4.61381">
        <ele>357</ele>
        <time>2021-03-03T21:16:52Z</time>
      </trkpt>
      <trkpt lat="45.57488" lon="4.6132">
        <ele>361</ele>
        <time>2021-03-03T21:18:26Z</time>
      </trkpt>
      <trkpt lat="45.5756" lon="4.61329">
        <ele>363</ele>
        <time>2021-03-03T21:20:02Z</time>
      </trkpt>
      <trkpt lat="45.57578" lon="4.61314">
        <ele>365</ele>
        <time>2021-03-03T21:20:30Z</time>
      </trkpt>
      <trkpt lat="45.57562" lon="4.61277">
        <ele>368</ele>
        <time>2021-03-03T21:21:11Z</time>
      </trkpt>
      <trkpt lat="45.5757" lon="4.61242">
        <ele>372</ele>
        <time>2021-03-03T21:21:45Z</time>
      </trkpt>
      <trkpt lat="45.57553" lon="4.61095">
        <ele>383</ele>
        <time>2021-03-03T21:24:04Z</time>
      </trkpt>
      <trkpt lat="45.57649" lon="4.61045">
        <ele>385</ele>
        <time>2021-03-03T21:26:21Z</time>
      </trkpt>
      <trkpt lat="45.57754" lon="4.60929">
        <ele>391</ele>
        <time>2021-03-03T21:29:18Z</time>
      </trkpt>
      <trkpt lat="45.57842" lon="4.60916">
        <ele>382</ele>
        <time>2021-03-03T21:31:16Z</time>
      </trkpt>
      <trkpt lat="45.57788" lon="4.60966">
        <ele>381</ele>
        <time>2021-03-03T21:32:42Z</time>
      </trkpt>
      <trkpt lat="45.5775" lon="4.61048">
        <ele>373</ele>
        <time>2021-03-03T21:34:13Z</time>
      </trkpt>
      <trkpt lat="45.5785" lon="4.60972">
        <ele>378</ele>
        <time>2021-03-03T21:36:45Z</time>
      </trkpt>
      <trkpt lat="45.57908" lon="4.60904">
        <ele>379</ele>
        <time>2021-03-03T21:38:25Z</time>
      </trkpt>
      <trkpt lat="45.57932" lon="4.6082">
        <ele>384</ele>
        <time>2021-03-03T21:39:49Z</time>
      </trkpt>
      <trkpt lat="45.58013" lon="4.60756">
        <ele>388</ele>
        <time>2021-03-03T21:41:53Z</time>
      </trkpt>
      <trkpt lat="45.58062" lon="4.60743">
        <ele>388</ele>
        <time>2021-03-03T21:43:00Z</time>
      </trkpt>
      <trkpt lat="45.58093" lon="4.60719">
        <ele>392</ele>
        <time>2021-03-03T21:43:47Z</time>
      </trkpt>
      <trkpt lat="45.58038" lon="4.60717">
        <ele>394</ele>
        <time>2021-03-03T21:45:00Z</time>
      </trkpt>
      <trkpt lat="45.57975" lon="4.6074">
        <ele>392</ele>
        <time>2021-03-03T21:46:27Z</time>
      </trkpt>
      <trkpt lat="45.57935" lon="4.60761">
        <ele>392</ele>
        <time>2021-03-03T21:47:24Z</time>
      </trkpt>
      <trkpt lat="45.57903" lon="4.60723">
        <ele>401</ele>
        <time>2021-03-03T21:48:19Z</time>
      </trkpt>
      <trkpt lat="45.57969" lon="4.60706">
        <ele>399</ele>
        <time>2021-03-03T21:49:49Z</time>
      </trkpt>
      <trkpt lat="45.58034" lon="4.60677">
        <ele>402</ele>
        <time>2021-03-03T21:51:20Z</time>
      </trkpt>
      <trkpt lat="45.58082" lon="4.60617">
        <ele>407</ele>
        <time>2021-03-03T21:52:45Z</time>
      </trkpt>
      <trkpt lat="45.58127" lon="4.60559">
        <ele>412</ele>
        <time>2021-03-03T21:54:05Z</time>
      </trkpt>
      <trkpt lat="45.58188" lon="4.60567">
        <ele>411</ele>
        <time>2021-03-03T21:55:27Z</time>
      </trkpt>
      <trkpt lat="45.58229" lon="4.60592">
        <ele>413</ele>
        <time>2021-03-03T21:56:27Z</time>
      </trkpt>
      <trkpt lat="45.58267" lon="4.60603">
        <ele>414</ele>
        <time>2021-03-03T21:57:18Z</time>
      </trkpt>
      <trkpt lat="45.58494" lon="4.60574">
        <ele>426</ele>
        <time>2021-03-03T22:02:23Z</time>
      </trkpt>
      <trkpt lat="45.5855" lon="4.60533">
        <ele>425</ele>
        <time>2021-03-03T22:03:47Z</time>
      </trkpt>
      <trkpt lat="45.58579" lon="4.60439">
        <ele>433</ele>
        <time>2021-03-03T22:05:23Z</time>
      </trkpt>
      <trkpt lat="45.58622" lon="4.60325">
        <ele>433</ele>
        <time>2021-03-03T22:07:23Z</time>
      </trkpt>
      <trkpt lat="45.58663" lon="4.60233">
        <ele>440</ele>
        <time>2021-03-03T22:09:05Z</time>
      </trkpt>
      <trkpt lat="45.58689" lon="4.6018">
        <ele>439</ele>
        <time>2021-03-03T22:10:06Z</time>
      </trkpt>
      <trkpt lat="45.58709" lon="4.60074">
        <ele>440</ele>
        <time>2021-03-03T22:11:48Z</time>
      </trkpt>
      <trkpt lat="45.58731" lon="4.59969">
        <ele>439</ele>
        <time>2021-03-03T22:13:31Z</time>
      </trkpt>
      <trkpt lat="45.58753" lon="4.59957">
        <ele>436</ele>
        <time>2021-03-03T22:14:02Z</time>
      </trkpt>
      <trkpt lat="45.58753" lon="4.59993">
        <ele>435</ele>
        <time>2021-03-03T22:14:36Z</time>
      </trkpt>
      <trkpt lat="45.58754" lon="4.60027">
        <ele>433</ele>
        <time>2021-03-03T22:15:07Z</time>
      </trkpt>
      <trkpt lat="45.58786" lon="4.60125">
        <ele>432</ele>
        <time>2021-03-03T22:16:48Z</time>
      </trkpt>
      <trkpt lat="45.58796" lon="4.60263">
        <ele>429</ele>
        <time>2021-03-03T22:18:58Z</time>
      </trkpt>
      <trkpt lat="45.58857" lon="4.60306">
        <ele>438</ele>
        <time>2021-03-03T22:20:29Z</time>
      </trkpt>
      <trkpt lat="45.58862" lon="4.60337">
        <ele>438</ele>
        <time>2021-03-03T22:20:59Z</time>
      </trkpt>
      <trkpt lat="45.58819" lon="4.60371">
        <ele>433</ele>
        <time>2021-03-03T22:22:04Z</time>
      </trkpt>
      <trkpt lat="45.58864" lon="4.60399">
        <ele>441</ele>
        <time>2021-03-03T22:23:10Z</time>
      </trkpt>
      <trkpt lat="45.58952" lon="4.60419">
        <ele>450</ele>
        <time>2021-03-03T22:25:08Z</time>
      </trkpt>
      <trkpt lat="45.58981" lon="4.6045">
        <ele>452</ele>
        <time>2021-03-03T22:25:57Z</time>
      </trkpt>
      <trkpt lat="45.59042" lon="4.6045">
        <ele>458</ele>
        <time>2021-03-03T22:27:18Z</time>
      </trkpt>
      <trkpt lat="45.59077" lon="4.60509">
        <ele>459</ele>
        <time>2021-03-03T22:28:30Z</time>
      </trkpt>
      <trkpt lat="45.59155" lon="4.6057">
        <ele>467</ele>
        <time>2021-03-03T22:30:29Z</time>
      </trkpt>
      <trkpt lat="45.59176" lon="4.6062">
        <ele>468</ele>
        <time>2021-03-03T22:31:24Z</time>
      </trkpt>
      <trkpt lat="45.5921" lon="4.60666">
        <ele>471</ele>
        <time>2021-03-03T22:32:26Z</time>
      </trkpt>
      <trkpt lat="45.59254" lon="4.60688">
        <ele>472</ele>
        <time>2021-03-03T22:33:28Z</time>
      </trkpt>
      <trkpt lat="45.5934" lon="4.60705">
        <ele>481</ele>
        <time>2021-03-03T22:35:24Z</time>
      </trkpt>
      <trkpt lat="45.5939" lon="4.60716">
        <ele>481</ele>
        <time>2021-03-03T22:36:32Z</time>
      </trkpt>
      <trkpt lat="45.59408" lon="4.6074">
        <ele>480</ele>
        <time>2021-03-03T22:37:04Z</time>
      </trkpt>
      <trkpt lat="45.59424" lon="4.60788">
        <ele>483</ele>
        <time>2021-03-03T22:37:54Z</time>
      </trkpt>
      <trkpt lat="45.59417" lon="4.60849">
        <ele>485</ele>
        <time>2021-03-03T22:38:52Z</time>
      </trkpt>
      <trkpt lat="45.59375" lon="4.60887">
        <ele>484</ele>
        <time>2021-03-03T22:39:58Z</time>
      </trkpt>
      <trkpt lat="45.59325" lon="4.60916">
        <ele>482</ele>
        <time>2021-03-03T22:41:10Z</time>
      </trkpt>
      <trkpt lat="45.5928" lon="4.60928">
        <ele>479</ele>
        <time>2021-03-03T22:42:11Z</time>
      </trkpt>
      <trkpt lat="45.59257" lon="4.60948">
        <ele>478</ele>
        <time>2021-03-03T22:42:47Z</time>
      </trkpt>
      <trkpt lat="45.59204" lon="4.60988">
        <ele>480</ele>
        <time>2021-03-03T22:44:07Z</time>
      </trkpt>
      <trkpt lat="45.59147" lon="4.60992">
        <ele>477</ele>
        <time>2021-03-03T22:45:23Z</time>
      </trkpt>
      <trkpt lat="45.59103" lon="4.61013">
        <ele>475</ele>
        <time>2021-03-03T22:46:25Z</time>
      </trkpt>
      <trkpt lat="45.5895" lon="4.61175">
        <ele>480</ele>
        <time>2021-03-03T22:50:39Z</time>
      </trkpt>
      <trkpt lat="45.58894" lon="4.61178">
        <ele>481</ele>
        <time>2021-03-03T22:51:54Z</time>
      </trkpt>
      <trkpt lat="45.58857" lon="4.6115">
        <ele>483</ele>
        <time>2021-03-03T22:52:50Z</time>
      </trkpt>
      <trkpt lat="45.58835" lon="4.61086">
        <ele>481</ele>
        <time>2021-03-03T22:53:57Z</time>
      </trkpt>
      <trkpt lat="45.58825" lon="4.61062">
        <ele>480</ele>
        <time>2021-03-03T22:54:23Z</time>
      </trkpt>
      <trkpt lat="45.58779" lon="4.61046">
        <ele>478</ele>
        <time>2021-03-03T22:55:26Z</time>
      </trkpt>
      <trkpt lat="45.58561" lon="4.61128">
        <ele>482</ele>
        <time>2021-03-03T23:00:27Z</time>
      </trkpt>
      <trkpt lat="45.5854" lon="4.61141">
        <ele>482</ele>
        <time>2021-03-03T23:00:57Z</time>
      </trkpt>
      <trkpt lat="45.58522" lon="4.61178">
        <ele>484</ele>
        <time>2021-03-03T23:01:39Z</time>
      </trkpt>
      <trkpt lat="45.58506" lon="4.6124">
        <ele>485</ele>
        <time>2021-03-03T23:02:41Z</time>
      </trkpt>
      <trkpt lat="45.58519" lon="4.61346">
        <ele>486</ele>
        <time>2021-03-03T23:04:22Z</time>
      </trkpt>
      <trkpt lat="45.58542" lon="4.61441">
        <ele>487</ele>
        <time>2021-03-03T23:05:55Z</time>
      </trkpt>
      <trkpt lat="45.58541" lon="4.61497">
        <ele>487</ele>
        <time>2021-03-03T23:06:48Z</time>
      </trkpt>
      <trkpt lat="45.5852" lon="4.61661">
        <ele>486</ele>
        <time>2021-03-03T23:09:23Z</time>
      </trkpt>
      <trkpt lat="45.58427" lon="4.61758">
        <ele>483</ele>
        <time>2021-03-03T23:11:57Z</time>
      </trkpt>
      <trkpt lat="45.5836" lon="4.61872">
        <ele>483</ele>
        <time>2021-03-03T23:14:16Z</time>
      </trkpt>
      <trkpt lat="45.58325" lon="4.62058">
        <ele>477</ele>
        <time>2021-03-03T23:17:16Z</time>
      </trkpt>
      <trkpt lat="45.58319" lon="4.62107">
        <ele>475</ele>
        <time>2021-03-03T23:18:02Z</time>
      </trkpt>
      <trkpt lat="45.58333" lon="4.62172">
        <ele>478</ele>
        <time>2021-03-03T23:19:06Z</time>
      </trkpt>
      <trkpt lat="45.58362" lon="4.62205">
        <ele>485</ele>
        <time>2021-03-03T23:19:55Z</time>
      </trkpt>
      <trkpt lat="45.58373" lon="4.62278">
        <ele>489</ele>
        <time>2021-03-03T23:21:05Z</time>
      </trkpt>
      <trkpt lat="45.58413" lon="4.62372">
        <ele>501</ele>
        <time>2021-03-03T23:22:48Z</time>
      </trkpt>
      <trkpt lat="45.58442" lon="4.62465">
        <ele>502</ele>
        <time>2021-03-03T23:24:23Z</time>
      </trkpt>
      <trkpt lat="45.58418" lon="4.62603">
        <ele>499</ele>
        <time>2021-03-03T23:26:36Z</time>
      </trkpt>
      <trkpt lat="45.5841" lon="4.6267">
        <ele>498</ele>
        <time>2021-03-03T23:27:39Z</time>
      </trkpt>
      <trkpt lat="45.58429" lon="4.62737">
        <ele>491</ele>
        <time>2021-03-03T23:28:47Z</time>
      </trkpt>
      <trkpt lat="45.58411" lon="4.62762">
        <ele>490</ele>
        <time>2021-03-03T23:29:20Z</time>
      </trkpt>
      <trkpt lat="45.58328" lon="4.62689">
        <ele>503</ele>
        <time>2021-03-03T23:31:30Z</time>
      </trkpt>
      <trkpt lat="45.58246" lon="4.62743">
        <ele>504</ele>
        <time>2021-03-03T23:33:31Z</time>
      </trkpt>
      <trkpt lat="45.58176" lon="4.6279">
        <ele>502</ele>
        <time>2021-03-03T23:35:14Z</time>
      </trkpt>
      <trkpt lat="45.58126" lon="4.62823">
        <ele>497</ele>
        <time>2021-03-03T23:36:28Z</time>
      </trkpt>
      <trkpt lat="45.58126" lon="4.62853">
        <ele>494</ele>
        <time>2021-03-03T23:36:56Z</time>
      </trkpt>
      <trkpt lat="45.58132" lon="4.62881">
        <ele>490</ele>
        <time>2021-03-03T23:37:23Z</time>
      </trkpt>
      <trkpt lat="45.58193" lon="4.62875">
        <ele>492</ele>
        <time>2021-03-03T23:38:45Z</time>
      </trkpt>
      <trkpt lat="45.58241" lon="4.62938">
        <ele>483</ele>
        <time>2021-03-03T23:40:12Z</time>
      </trkpt>
      <trkpt lat="45.58285" lon="4.62967">
        <ele>479</ele>
        <time>2021-03-03T23:41:16Z</time>
      </trkpt>
      <trkpt lat="45.58271" lon="4.62997">
        <ele>478</ele>
        <time>2021-03-03T23:41:50Z</time>
      </trkpt>
      <trkpt lat="45.58292" lon="4.63105">
        <ele>473</ele>
        <time>2021-03-03T23:43:35Z</time>
      </trkpt>
      <trkpt lat="45.58308" lon="4.63122">
        <ele>472</ele>
        <time>2021-03-03T23:44:01Z</time>
      </trkpt>
      <trkpt lat="45.5835" lon="4.6306">
        <ele>471</ele>
        <time>2021-03-03T23:45:22Z</time>
      </trkpt>
    </trkseg>
  </trk>
</gpx>